Terminal Aerodrome Forecast
Issued by NWS

Home | Current Version | Previous Version | Text Only | Print | Product List | Glossary On
Versions: 1 2 3 4 5 6 7 8 9 10 11 12 13 14 15 16 17 18 19 20 21 22 23 24 25 26 27 28 29 30 31 32 33
000
FTUS41 KBTV 251138
TAFPBG
TAF
KPBG 251138Z 2512/2612 31013G23KT P6SM SCT025 BKN040
     FM251500 32012G20KT P6SM BKN035
     FM252100 31008KT P6SM SKC=

USA.gov is the U.S. government's official web portal to all federal, state and local government web resources and services.